sensor_id;sensor_type;location;lat;lon;timestamp;temperature;humidity
25568;DHT22;13455;51.480;7.594;2023-05-19T00:00:20;10.50;99.90
25568;DHT22;13455;51.480;7.594;2023-05-19T00:02:47;10.60;99.90
25568;DHT22;13455;51.480;7.594;2023-05-19T00:05:13;10.50;99.90
25568;DHT22;13455;51.480;7.594;2023-05-19T00:07:43;10.50;99.90
25568;DHT22;13455;51.480;7.594;2023-05-19T00:10:10;10.40;99.90
25568;DHT22;13455;51.480;7.594;2023-05-19T00:12:36;10.40;99.90
25568;DHT22;13455;51.480;7.594;2023-05-19T00:15:02;10.30;99.90
25568;DHT22;13455;51.480;7.594;2023-05-19T00:17:28;10.30;99.90
25568;DHT22;13455;51.480;7.594;2023-05-19T00:19:54;10.50;99.90
25568;DHT22;13455;51.480;7.594;2023-05-19T00:22:20;10.30;99.90
25568;DHT22;13455;51.480;7.594;2023-05-19T00:24:45;10.30;99.90
25568;DHT22;13455;51.480;7.594;2023-05-19T00:27:11;10.30;99.90
25568;DHT22;13455;51.480;7.594;2023-05-19T00:29:36;10.10;99.90
25568;DHT22;13455;51.480;7.594;2023-05-19T00:32:02;10.20;99.90
25568;DHT22;13455;51.480;7.594;2023-05-19T00:34:28;10.10;99.90
25568;DHT22;13455;51.480;7.594;2023-05-19T00:36:53;10.20;99.90
25568;DHT22;13455;51.480;7.594;2023-05-19T00:39:19;10.20;99.90
25568;DHT22;13455;51.480;7.594;2023-05-19T00:41:44;10.20;99.90
25568;DHT22;13455;51.480;7.594;2023-05-19T00:44:10;10.00;99.90
25568;DHT22;13455;51.480;7.594;2023-05-19T00:46:36;10.30;99.90
25568;DHT22;13455;51.480;7.594;2023-05-19T00:49:02;10.10;99.90
25568;DHT22;13455;51.480;7.594;2023-05-19T00:51:28;10.00;99.90
25568;DHT22;13455;51.480;7.594;2023-05-19T00:53:54;9.90;99.90
25568;DHT22;13455;51.480;7.594;2023-05-19T00:56:21;10.30;99.90
25568;DHT22;13455;51.480;7.594;2023-05-19T00:58:50;10.00;99.90
25568;DHT22;13455;51.480;7.594;2023-05-19T01:01:16;9.80;99.90
25568;DHT22;13455;51.480;7.594;2023-05-19T01:03:44;9.70;99.90
25568;DHT22;13455;51.480;7.594;2023-05-19T01:06:11;9.80;99.90
25568;DHT22;13455;51.480;7.594;2023-05-19T01:08:37;9.50;99.90
25568;DHT22;13455;51.480;7.594;2023-05-19T01:11:06;9.60;99.90
25568;DHT22;13455;51.480;7.594;2023-05-19T01:13:33;9.70;99.90
25568;DHT22;13455;51.480;7.594;2023-05-19T01:18:34;9.60;99.90
25568;DHT22;13455;51.480;7.594;2023-05-19T01:29:42;9.40;99.90
25568;DHT22;13455;51.480;7.594;2023-05-19T01:32:13;9.40;99.90
25568;DHT22;13455;51.480;7.594;2023-05-19T01:34:44;9.40;99.90
25568;DHT22;13455;51.480;7.594;2023-05-19T01:37:12;9.40;99.90
25568;DHT22;13455;51.480;7.594;2023-05-19T01:39:39;9.30;99.90
25568;DHT22;13455;51.480;7.594;2023-05-19T01:42:06;9.60;99.90
25568;DHT22;13455;51.480;7.594;2023-05-19T01:44:33;9.30;99.90
25568;DHT22;13455;51.480;7.594;2023-05-19T01:46:59;9.20;99.90
25568;DHT22;13455;51.480;7.594;2023-05-19T01:51:51;9.30;99.90
25568;DHT22;13455;51.480;7.594;2023-05-19T02:01:57;9.00;99.90
25568;DHT22;13455;51.480;7.594;2023-05-19T02:22:12;8.90;99.90
25568;DHT22;13455;51.480;7.594;2023-05-19T02:24:37;8.80;99.90
25568;DHT22;13455;51.480;7.594;2023-05-19T02:27:04;8.80;99.90
25568;DHT22;13455;51.480;7.594;2023-05-19T02:29:29;8.70;99.90
25568;DHT22;13455;51.480;7.594;2023-05-19T02:31:55;8.60;99.90
25568;DHT22;13455;51.480;7.594;2023-05-19T02:36:47;8.50;99.90
25568;DHT22;13455;51.480;7.594;2023-05-19T02:39:14;8.50;99.90
25568;DHT22;13455;51.480;7.594;2023-05-19T02:41:40;8.50;99.90
25568;DHT22;13455;51.480;7.594;2023-05-19T02:44:06;8.40;99.90
25568;DHT22;13455;51.480;7.594;2023-05-19T02:46:32;8.40;99.90
25568;DHT22;13455;51.480;7.594;2023-05-19T02:48:58;8.40;99.90
25568;DHT22;13455;51.480;7.594;2023-05-19T03:01:08;8.20;99.90
25568;DHT22;13455;51.480;7.594;2023-05-19T03:03:34;8.10;99.90
25568;DHT22;13455;51.480;7.594;2023-05-19T03:06:00;8.10;99.90
25568;DHT22;13455;51.480;7.594;2023-05-19T03:08:26;8.00;99.90
25568;DHT22;13455;51.480;7.594;2023-05-19T03:10:52;7.90;99.90
25568;DHT22;13455;51.480;7.594;2023-05-19T03:13:18;8.00;99.90
25568;DHT22;13455;51.480;7.594;2023-05-19T03:18:13;8.10;99.90
25568;DHT22;13455;51.480;7.594;2023-05-19T03:20:38;8.20;99.90
25568;DHT22;13455;51.480;7.594;2023-05-19T03:23:06;8.30;99.90
25568;DHT22;13455;51.480;7.594;2023-05-19T03:25:33;7.90;99.90
25568;DHT22;13455;51.480;7.594;2023-05-19T03:27:58;7.70;99.90
25568;DHT22;13455;51.480;7.594;2023-05-19T03:30:24;7.90;99.90
25568;DHT22;13455;51.480;7.594;2023-05-19T03:32:50;7.80;99.90
25568;DHT22;13455;51.480;7.594;2023-05-19T03:35:16;7.70;99.90
25568;DHT22;13455;51.480;7.594;2023-05-19T03:37:42;7.70;99.90
25568;DHT22;13455;51.480;7.594;2023-05-19T03:40:08;8.00;99.90
25568;DHT22;13455;51.480;7.594;2023-05-19T03:42:33;7.80;99.90
25568;DHT22;13455;51.480;7.594;2023-05-19T03:44:59;7.80;99.90
25568;DHT22;13455;51.480;7.594;2023-05-19T03:47:24;7.60;99.90
25568;DHT22;13455;51.480;7.594;2023-05-19T03:49:50;7.80;99.90
25568;DHT22;13455;51.480;7.594;2023-05-19T03:52:16;7.80;99.90
25568;DHT22;13455;51.480;7.594;2023-05-19T03:54:41;7.80;99.90
25568;DHT22;13455;51.480;7.594;2023-05-19T03:57:08;7.90;99.90
25568;DHT22;13455;51.480;7.594;2023-05-19T03:59:35;7.90;99.90
25568;DHT22;13455;51.480;7.594;2023-05-19T04:02:02;7.90;99.90
25568;DHT22;13455;51.480;7.594;2023-05-19T04:06:53;7.90;99.90
25568;DHT22;13455;51.480;7.594;2023-05-19T04:09:20;8.30;99.90
25568;DHT22;13455;51.480;7.594;2023-05-19T04:11:45;8.30;99.90
25568;DHT22;13455;51.480;7.594;2023-05-19T04:14:11;7.80;99.90
25568;DHT22;13455;51.480;7.594;2023-05-19T04:19:03;8.70;99.90
25568;DHT22;13455;51.480;7.594;2023-05-19T04:21:28;8.50;99.90
25568;DHT22;13455;51.480;7.594;2023-05-19T04:23:54;8.10;99.90
25568;DHT22;13455;51.480;7.594;2023-05-19T04:26:20;8.40;99.90
25568;DHT22;13455;51.480;7.594;2023-05-19T04:28:47;8.30;99.90
25568;DHT22;13455;51.480;7.594;2023-05-19T04:31:13;8.40;99.90
25568;DHT22;13455;51.480;7.594;2023-05-19T04:33:39;8.40;99.90
25568;DHT22;13455;51.480;7.594;2023-05-19T04:36:06;8.40;99.90
25568;DHT22;13455;51.480;7.594;2023-05-19T04:38:35;8.20;99.90
25568;DHT22;13455;51.480;7.594;2023-05-19T04:41:02;8.60;99.90
25568;DHT22;13455;51.480;7.594;2023-05-19T04:43:28;8.80;99.90
25568;DHT22;13455;51.480;7.594;2023-05-19T04:45:54;8.60;99.90
25568;DHT22;13455;51.480;7.594;2023-05-19T04:48:20;8.80;99.90
25568;DHT22;13455;51.480;7.594;2023-05-19T04:50:46;8.70;99.90
25568;DHT22;13455;51.480;7.594;2023-05-19T04:53:13;8.70;99.90
25568;DHT22;13455;51.480;7.594;2023-05-19T04:55:39;8.60;99.90
25568;DHT22;13455;51.480;7.594;2023-05-19T04:58:05;8.50;99.90
25568;DHT22;13455;51.480;7.594;2023-05-19T05:00:31;9.00;99.90
25568;DHT22;13455;51.480;7.594;2023-05-19T05:02:57;8.90;99.90
25568;DHT22;13455;51.480;7.594;2023-05-19T05:05:23;8.90;99.90
25568;DHT22;13455;51.480;7.594;2023-05-19T05:07:49;9.00;99.90
25568;DHT22;13455;51.480;7.594;2023-05-19T05:10:15;9.00;99.90
25568;DHT22;13455;51.480;7.594;2023-05-19T05:12:41;9.10;99.90
25568;DHT22;13455;51.480;7.594;2023-05-19T05:15:07;8.70;99.90
25568;DHT22;13455;51.480;7.594;2023-05-19T05:17:33;9.10;99.90
25568;DHT22;13455;51.480;7.594;2023-05-19T05:20:00;9.20;99.90
25568;DHT22;13455;51.480;7.594;2023-05-19T05:22:26;9.30;99.90
25568;DHT22;13455;51.480;7.594;2023-05-19T05:24:52;9.20;99.90
25568;DHT22;13455;51.480;7.594;2023-05-19T05:27:18;9.40;99.90
25568;DHT22;13455;51.480;7.594;2023-05-19T05:37:04;9.70;99.90
25568;DHT22;13455;51.480;7.594;2023-05-19T05:39:30;9.70;99.90
25568;DHT22;13455;51.480;7.594;2023-05-19T05:41:56;9.70;99.90
25568;DHT22;13455;51.480;7.594;2023-05-19T05:44:21;9.70;99.90
25568;DHT22;13455;51.480;7.594;2023-05-19T05:46:47;10.20;99.90
25568;DHT22;13455;51.480;7.594;2023-05-19T05:49:13;10.20;99.90
25568;DHT22;13455;51.480;7.594;2023-05-19T05:51:39;10.00;99.90
25568;DHT22;13455;51.480;7.594;2023-05-19T05:54:05;10.10;99.90
25568;DHT22;13455;51.480;7.594;2023-05-19T05:56:32;10.20;99.90
25568;DHT22;13455;51.480;7.594;2023-05-19T06:06:16;10.80;99.90
25568;DHT22;13455;51.480;7.594;2023-05-19T06:13:35;10.80;99.90
25568;DHT22;13455;51.480;7.594;2023-05-19T06:16:00;10.90;99.90
25568;DHT22;13455;51.480;7.594;2023-05-19T06:18:27;11.00;99.90
25568;DHT22;13455;51.480;7.594;2023-05-19T06:20:53;10.10;99.90
25568;DHT22;13455;51.480;7.594;2023-05-19T06:23:18;11.20;99.90
25568;DHT22;13455;51.480;7.594;2023-05-19T06:25:44;11.30;99.90
25568;DHT22;13455;51.480;7.594;2023-05-19T06:28:10;11.40;99.90
25568;DHT22;13455;51.480;7.594;2023-05-19T06:30:36;11.60;99.90
25568;DHT22;13455;51.480;7.594;2023-05-19T06:33:02;11.60;99.90
25568;DHT22;13455;51.480;7.594;2023-05-19T06:35:29;11.90;99.90
25568;DHT22;13455;51.480;7.594;2023-05-19T06:37:54;12.00;99.90
25568;DHT22;13455;51.480;7.594;2023-05-19T06:45:12;12.30;99.90
25568;DHT22;13455;51.480;7.594;2023-05-19T06:50:09;12.50;99.90
25568;DHT22;13455;51.480;7.594;2023-05-19T06:52:35;12.60;99.90
25568;DHT22;13455;51.480;7.594;2023-05-19T06:55:01;12.70;99.90
25568;DHT22;13455;51.480;7.594;2023-05-19T07:09:37;13.50;99.90
25568;DHT22;13455;51.480;7.594;2023-05-19T07:12:03;13.90;99.90
25568;DHT22;13455;51.480;7.594;2023-05-19T07:14:29;13.70;99.90
25568;DHT22;13455;51.480;7.594;2023-05-19T07:16:54;13.90;99.90
25568;DHT22;13455;51.480;7.594;2023-05-19T07:19:20;14.10;99.90
25568;DHT22;13455;51.480;7.594;2023-05-19T07:21:46;14.00;99.90
25568;DHT22;13455;51.480;7.594;2023-05-19T07:24:12;13.60;99.90
25568;DHT22;13455;51.480;7.594;2023-05-19T07:26:38;14.40;99.90
25568;DHT22;13455;51.480;7.594;2023-05-19T07:29:04;14.30;99.90
25568;DHT22;13455;51.480;7.594;2023-05-19T07:31:30;14.20;99.90
25568;DHT22;13455;51.480;7.594;2023-05-19T07:33:56;14.30;99.90
25568;DHT22;13455;51.480;7.594;2023-05-19T07:38:48;14.50;99.90
25568;DHT22;13455;51.480;7.594;2023-05-19T07:41:14;14.70;99.90
25568;DHT22;13455;51.480;7.594;2023-05-19T07:43:41;14.80;99.90
25568;DHT22;13455;51.480;7.594;2023-05-19T07:46:06;15.00;99.90
25568;DHT22;13455;51.480;7.594;2023-05-19T07:48:32;15.10;99.90
25568;DHT22;13455;51.480;7.594;2023-05-19T07:50:58;15.10;99.90
25568;DHT22;13455;51.480;7.594;2023-05-19T07:53:23;15.30;99.90
25568;DHT22;13455;51.480;7.594;2023-05-19T07:55:49;15.40;99.90
25568;DHT22;13455;51.480;7.594;2023-05-19T07:58:15;15.50;99.90
25568;DHT22;13455;51.480;7.594;2023-05-19T08:00:41;15.60;99.90
25568;DHT22;13455;51.480;7.594;2023-05-19T08:03:11;15.80;99.90
25568;DHT22;13455;51.480;7.594;2023-05-19T08:05:37;16.10;99.90
25568;DHT22;13455;51.480;7.594;2023-05-19T08:08:03;16.10;99.90
25568;DHT22;13455;51.480;7.594;2023-05-19T08:10:29;16.20;99.90
25568;DHT22;13455;51.480;7.594;2023-05-19T08:12:55;16.70;99.90
25568;DHT22;13455;51.480;7.594;2023-05-19T08:15:20;16.50;99.90
25568;DHT22;13455;51.480;7.594;2023-05-19T08:17:46;16.50;99.90
25568;DHT22;13455;51.480;7.594;2023-05-19T08:20:12;16.50;99.90
25568;DHT22;13455;51.480;7.594;2023-05-19T08:22:38;16.60;99.90
25568;DHT22;13455;51.480;7.594;2023-05-19T08:25:04;16.80;99.90
25568;DHT22;13455;51.480;7.594;2023-05-19T08:27:30;16.90;99.90
25568;DHT22;13455;51.480;7.594;2023-05-19T08:29:56;17.10;99.90
25568;DHT22;13455;51.480;7.594;2023-05-19T08:32:22;16.90;99.90
25568;DHT22;13455;51.480;7.594;2023-05-19T08:34:48;16.90;99.90
25568;DHT22;13455;51.480;7.594;2023-05-19T08:37:13;17.10;99.90
25568;DHT22;13455;51.480;7.594;2023-05-19T08:39:39;17.20;99.90
25568;DHT22;13455;51.480;7.594;2023-05-19T08:42:05;17.30;99.90
25568;DHT22;13455;51.480;7.594;2023-05-19T08:44:32;17.30;99.90
25568;DHT22;13455;51.480;7.594;2023-05-19T08:49:32;17.50;99.70
25568;DHT22;13455;51.480;7.594;2023-05-19T08:54:49;17.70;97.40
25568;DHT22;13455;51.480;7.594;2023-05-19T08:57:16;17.80;96.50
25568;DHT22;13455;51.480;7.594;2023-05-19T08:59:42;17.90;97.70
25568;DHT22;13455;51.480;7.594;2023-05-19T09:02:10;17.90;99.30
25568;DHT22;13455;51.480;7.594;2023-05-19T09:04:38;17.80;95.80
25568;DHT22;13455;51.480;7.594;2023-05-19T09:09:31;18.00;93.00
25568;DHT22;13455;51.480;7.594;2023-05-19T09:11:57;18.30;93.80
25568;DHT22;13455;51.480;7.594;2023-05-19T09:16:48;18.60;91.90
25568;DHT22;13455;51.480;7.594;2023-05-19T09:38:55;19.40;83.00
25568;DHT22;13455;51.480;7.594;2023-05-19T09:41:21;19.30;83.50
25568;DHT22;13455;51.480;7.594;2023-05-19T09:43:53;19.30;82.20
25568;DHT22;13455;51.480;7.594;2023-05-19T09:46:24;19.30;81.70
25568;DHT22;13455;51.480;7.594;2023-05-19T09:48:56;19.50;82.90
25568;DHT22;13455;51.480;7.594;2023-05-19T09:53:49;20.10;88.00
25568;DHT22;13455;51.480;7.594;2023-05-19T09:58:48;20.10;79.20
25568;DHT22;13455;51.480;7.594;2023-05-19T10:06:06;20.60;76.30
25568;DHT22;13455;51.480;7.594;2023-05-19T10:08:33;20.70;76.30
25568;DHT22;13455;51.480;7.594;2023-05-19T10:11:00;20.80;76.40
25568;DHT22;13455;51.480;7.594;2023-05-19T10:13:28;20.80;74.80
25568;DHT22;13455;51.480;7.594;2023-05-19T10:15:56;20.90;69.40
25568;DHT22;13455;51.480;7.594;2023-05-19T10:18:24;20.80;69.50
25568;DHT22;13455;51.480;7.594;2023-05-19T10:20:51;20.90;72.60
25568;DHT22;13455;51.480;7.594;2023-05-19T10:23:17;21.30;72.30
25568;DHT22;13455;51.480;7.594;2023-05-19T10:25:43;21.50;73.50
25568;DHT22;13455;51.480;7.594;2023-05-19T10:28:13;21.50;70.20
25568;DHT22;13455;51.480;7.594;2023-05-19T10:30:43;21.70;71.50
25568;DHT22;13455;51.480;7.594;2023-05-19T10:33:13;21.80;69.80
25568;DHT22;13455;51.480;7.594;2023-05-19T10:38:47;21.90;70.00
25568;DHT22;13455;51.480;7.594;2023-05-19T10:46:58;22.20;68.60
25568;DHT22;13455;51.480;7.594;2023-05-19T10:49:24;22.00;69.60
25568;DHT22;13455;51.480;7.594;2023-05-19T10:54:37;22.40;66.10
25568;DHT22;13455;51.480;7.594;2023-05-19T10:59:34;22.40;65.80
25568;DHT22;13455;51.480;7.594;2023-05-19T11:02:05;22.50;67.50
25568;DHT22;13455;51.480;7.594;2023-05-19T11:04:47;22.50;66.50
25568;DHT22;13455;51.480;7.594;2023-05-19T11:09:52;22.80;65.30
25568;DHT22;13455;51.480;7.594;2023-05-19T11:12:21;22.80;64.10
25568;DHT22;13455;51.480;7.594;2023-05-19T11:14:47;22.90;65.70
25568;DHT22;13455;51.480;7.594;2023-05-19T11:17:17;22.70;62.90
25568;DHT22;13455;51.480;7.594;2023-05-19T11:19:54;22.70;64.40
25568;DHT22;13455;51.480;7.594;2023-05-19T11:22:27;22.70;63.80
25568;DHT22;13455;51.480;7.594;2023-05-19T11:24:56;22.80;63.60
25568;DHT22;13455;51.480;7.594;2023-05-19T11:27:28;23.10;64.10
25568;DHT22;13455;51.480;7.594;2023-05-19T11:30:09;23.30;60.40
25568;DHT22;13455;51.480;7.594;2023-05-19T11:32:43;23.10;60.00
25568;DHT22;13455;51.480;7.594;2023-05-19T11:35:11;23.20;61.70
25568;DHT22;13455;51.480;7.594;2023-05-19T11:37:37;23.40;61.80
25568;DHT22;13455;51.480;7.594;2023-05-19T11:42:32;24.20;78.20
25568;DHT22;13455;51.480;7.594;2023-05-19T11:44:59;23.90;60.00
25568;DHT22;13455;51.480;7.594;2023-05-19T11:47:26;23.70;59.10
25568;DHT22;13455;51.480;7.594;2023-05-19T11:49:53;23.80;71.70
25568;DHT22;13455;51.480;7.594;2023-05-19T11:52:24;24.00;78.60
25568;DHT22;13455;51.480;7.594;2023-05-19T11:54:51;24.00;69.40
25568;DHT22;13455;51.480;7.594;2023-05-19T11:57:18;23.80;65.30
25568;DHT22;13455;51.480;7.594;2023-05-19T11:59:44;24.00;58.20
25568;DHT22;13455;51.480;7.594;2023-05-19T12:04:41;24.20;57.50
25568;DHT22;13455;51.480;7.594;2023-05-19T12:07:06;24.40;92.60
25568;DHT22;13455;51.480;7.594;2023-05-19T12:09:32;24.40;54.10
25568;DHT22;13455;51.480;7.594;2023-05-19T12:11:58;24.50;55.50
25568;DHT22;13455;51.480;7.594;2023-05-19T12:14:25;24.20;54.40
25568;DHT22;13455;51.480;7.594;2023-05-19T12:19:17;24.60;52.10
25568;DHT22;13455;51.480;7.594;2023-05-19T12:21:43;24.80;54.30
25568;DHT22;13455;51.480;7.594;2023-05-19T12:24:09;25.00;51.50
25568;DHT22;13455;51.480;7.594;2023-05-19T12:29:04;25.10;89.60
25568;DHT22;13455;51.480;7.594;2023-05-19T12:31:31;25.20;52.90
25568;DHT22;13455;51.480;7.594;2023-05-19T12:33:57;25.20;52.00
25568;DHT22;13455;51.480;7.594;2023-05-19T12:36:23;25.30;52.60
25568;DHT22;13455;51.480;7.594;2023-05-19T12:41:18;25.90;51.50
25568;DHT22;13455;51.480;7.594;2023-05-19T12:43:44;26.20;51.50
25568;DHT22;13455;51.480;7.594;2023-05-19T12:46:11;26.20;49.80
25568;DHT22;13455;51.480;7.594;2023-05-19T12:48:43;26.10;49.70
25568;DHT22;13455;51.480;7.594;2023-05-19T12:51:09;26.20;50.70
25568;DHT22;13455;51.480;7.594;2023-05-19T12:53:36;26.20;49.80
25568;DHT22;13455;51.480;7.594;2023-05-19T12:56:12;26.30;50.20
25568;DHT22;13455;51.480;7.594;2023-05-19T12:58:39;26.20;48.20
25568;DHT22;13455;51.480;7.594;2023-05-19T13:01:05;26.30;49.90
25568;DHT22;13455;51.480;7.594;2023-05-19T13:47:49;27.20;44.00
25568;DHT22;13455;51.480;7.594;2023-05-19T13:52:41;27.70;44.30
25568;DHT22;13455;51.480;7.594;2023-05-19T13:55:07;27.80;44.60
25568;DHT22;13455;51.480;7.594;2023-05-19T13:57:32;27.90;43.80
25568;DHT22;13455;51.480;7.594;2023-05-19T13:59:59;27.80;44.20
25568;DHT22;13455;51.480;7.594;2023-05-19T14:02:25;27.80;44.00
25568;DHT22;13455;51.480;7.594;2023-05-19T14:04:50;27.50;42.80
25568;DHT22;13455;51.480;7.594;2023-05-19T14:07:16;27.50;43.70
25568;DHT22;13455;51.480;7.594;2023-05-19T14:09:42;27.40;43.90
25568;DHT22;13455;51.480;7.594;2023-05-19T14:12:07;27.30;43.90
25568;DHT22;13455;51.480;7.594;2023-05-19T14:14:36;26.90;43.70
25568;DHT22;13455;51.480;7.594;2023-05-19T14:17:02;27.10;57.50
25568;DHT22;13455;51.480;7.594;2023-05-19T14:19:28;27.10;44.50
25568;DHT22;13455;51.480;7.594;2023-05-19T14:21:55;27.20;44.80
25568;DHT22;13455;51.480;7.594;2023-05-19T14:24:21;27.40;44.70
25568;DHT22;13455;51.480;7.594;2023-05-19T14:26:47;27.70;44.10
25568;DHT22;13455;51.480;7.594;2023-05-19T14:29:13;27.70;43.90
25568;DHT22;13455;51.480;7.594;2023-05-19T14:31:39;28.10;47.50
25568;DHT22;13455;51.480;7.594;2023-05-19T14:34:04;28.20;44.50
25568;DHT22;13455;51.480;7.594;2023-05-19T14:36:30;28.20;46.20
25568;DHT22;13455;51.480;7.594;2023-05-19T14:38:57;28.50;42.90
25568;DHT22;13455;51.480;7.594;2023-05-19T14:41:23;28.60;42.90
25568;DHT22;13455;51.480;7.594;2023-05-19T14:43:48;28.90;41.10
25568;DHT22;13455;51.480;7.594;2023-05-19T14:46:14;28.80;42.10
25568;DHT22;13455;51.480;7.594;2023-05-19T14:48:40;29.10;42.00
25568;DHT22;13455;51.480;7.594;2023-05-19T14:51:05;29.30;42.10
25568;DHT22;13455;51.480;7.594;2023-05-19T14:53:31;29.20;41.00
25568;DHT22;13455;51.480;7.594;2023-05-19T14:55:56;28.60;69.70
25568;DHT22;13455;51.480;7.594;2023-05-19T14:58:22;29.40;68.60
25568;DHT22;13455;51.480;7.594;2023-05-19T15:00:48;29.30;59.70
25568;DHT22;13455;51.480;7.594;2023-05-19T15:03:13;29.30;58.50
25568;DHT22;13455;51.480;7.594;2023-05-19T15:05:39;29.00;56.70
25568;DHT22;13455;51.480;7.594;2023-05-19T15:08:05;29.30;57.80
25568;DHT22;13455;51.480;7.594;2023-05-19T15:12:57;29.50;39.20
25568;DHT22;13455;51.480;7.594;2023-05-19T15:15:23;29.70;39.90
25568;DHT22;13455;51.480;7.594;2023-05-19T15:17:49;29.50;39.00
25568;DHT22;13455;51.480;7.594;2023-05-19T15:20:15;30.50;58.80
25568;DHT22;13455;51.480;7.594;2023-05-19T15:22:40;30.30;38.20
25568;DHT22;13455;51.480;7.594;2023-05-19T15:47:03;30.20;36.10
25568;DHT22;13455;51.480;7.594;2023-05-19T15:51:54;29.80;37.30
25568;DHT22;13455;51.480;7.594;2023-05-19T15:54:20;29.60;38.20
25568;DHT22;13455;51.480;7.594;2023-05-19T15:56:45;29.80;39.10
25568;DHT22;13455;51.480;7.594;2023-05-19T15:59:11;30.10;38.80
25568;DHT22;13455;51.480;7.594;2023-05-19T16:01:37;29.90;38.50
25568;DHT22;13455;51.480;7.594;2023-05-19T16:04:03;30.20;38.60
25568;DHT22;13455;51.480;7.594;2023-05-19T16:06:30;29.80;38.60
25568;DHT22;13455;51.480;7.594;2023-05-19T16:08:56;29.80;38.90
25568;DHT22;13455;51.480;7.594;2023-05-19T16:11:21;29.80;38.40
25568;DHT22;13455;51.480;7.594;2023-05-19T16:13:47;30.10;38.70
25568;DHT22;13455;51.480;7.594;2023-05-19T16:16:13;29.70;37.80
25568;DHT22;13455;51.480;7.594;2023-05-19T16:18:39;30.00;38.90
25568;DHT22;13455;51.480;7.594;2023-05-19T16:21:05;30.10;38.70
25568;DHT22;13455;51.480;7.594;2023-05-19T16:23:30;30.30;38.60
25568;DHT22;13455;51.480;7.594;2023-05-19T16:25:56;30.40;38.90
25568;DHT22;13455;51.480;7.594;2023-05-19T16:28:22;30.30;38.10
25568;DHT22;13455;51.480;7.594;2023-05-19T16:30:47;30.10;37.90
25568;DHT22;13455;51.480;7.594;2023-05-19T16:33:13;29.70;37.80
25568;DHT22;13455;51.480;7.594;2023-05-19T16:35:39;29.90;38.20
25568;DHT22;13455;51.480;7.594;2023-05-19T16:38:04;30.00;38.00
25568;DHT22;13455;51.480;7.594;2023-05-19T16:40:30;30.20;38.20
25568;DHT22;13455;51.480;7.594;2023-05-19T16:42:56;29.70;37.20
25568;DHT22;13455;51.480;7.594;2023-05-19T16:50:13;29.50;36.90
25568;DHT22;13455;51.480;7.594;2023-05-19T16:57:31;26.20;40.30
25568;DHT22;13455;51.480;7.594;2023-05-19T17:02:23;25.50;41.80
25568;DHT22;13455;51.480;7.594;2023-05-19T17:07:14;24.60;43.20
25568;DHT22;13455;51.480;7.594;2023-05-19T17:09:41;24.50;42.90
25568;DHT22;13455;51.480;7.594;2023-05-19T17:12:07;24.30;44.50
25568;DHT22;13455;51.480;7.594;2023-05-19T17:19:25;23.30;46.30
25568;DHT22;13455;51.480;7.594;2023-05-19T17:21:51;23.00;47.50
25568;DHT22;13455;51.480;7.594;2023-05-19T17:24:17;23.00;47.30
25568;DHT22;13455;51.480;7.594;2023-05-19T17:31:35;22.50;48.70
25568;DHT22;13455;51.480;7.594;2023-05-19T17:34:00;22.20;50.20
25568;DHT22;13455;51.480;7.594;2023-05-19T17:36:26;22.10;50.90
25568;DHT22;13455;51.480;7.594;2023-05-19T17:38:52;22.10;50.80
25568;DHT22;13455;51.480;7.594;2023-05-19T17:43:43;21.60;51.20
25568;DHT22;13455;51.480;7.594;2023-05-19T17:46:09;21.50;52.00
25568;DHT22;13455;51.480;7.594;2023-05-19T17:48:35;21.50;52.60
25568;DHT22;13455;51.480;7.594;2023-05-19T17:51:01;21.40;53.10
25568;DHT22;13455;51.480;7.594;2023-05-19T17:53:27;21.00;53.20
25568;DHT22;13455;51.480;7.594;2023-05-19T17:55:58;20.90;54.00
25568;DHT22;13455;51.480;7.594;2023-05-19T18:00:51;20.70;54.10
25568;DHT22;13455;51.480;7.594;2023-05-19T18:03:17;20.60;54.20
25568;DHT22;13455;51.480;7.594;2023-05-19T18:05:43;20.70;54.90
25568;DHT22;13455;51.480;7.594;2023-05-19T18:08:10;20.50;55.00
25568;DHT22;13455;51.480;7.594;2023-05-19T18:10:39;20.50;55.10
25568;DHT22;13455;51.480;7.594;2023-05-19T18:20:23;20.20;55.70
25568;DHT22;13455;51.480;7.594;2023-05-19T18:22:49;20.10;56.50
25568;DHT22;13455;51.480;7.594;2023-05-19T18:25:14;20.10;56.40
25568;DHT22;13455;51.480;7.594;2023-05-19T18:27:41;19.90;56.70
25568;DHT22;13455;51.480;7.594;2023-05-19T18:30:08;19.80;56.90
25568;DHT22;13455;51.480;7.594;2023-05-19T18:34:59;19.70;56.90
25568;DHT22;13455;51.480;7.594;2023-05-19T18:37:25;19.60;58.00
25568;DHT22;13455;51.480;7.594;2023-05-19T18:39:51;19.80;63.10
25568;DHT22;13455;51.480;7.594;2023-05-19T18:42:17;19.60;58.60
25568;DHT22;13455;51.480;7.594;2023-05-19T18:44:42;19.50;58.70
25568;DHT22;13455;51.480;7.594;2023-05-19T18:47:11;19.40;64.40
25568;DHT22;13455;51.480;7.594;2023-05-19T18:49:37;19.50;63.40
25568;DHT22;13455;51.480;7.594;2023-05-19T18:52:03;19.30;59.70
25568;DHT22;13455;51.480;7.594;2023-05-19T18:54:29;19.20;60.30
25568;DHT22;13455;51.480;7.594;2023-05-19T18:59:22;19.00;61.10
25568;DHT22;13455;51.480;7.594;2023-05-19T19:06:42;18.70;62.80
25568;DHT22;13455;51.480;7.594;2023-05-19T19:09:08;18.70;63.80
25568;DHT22;13455;51.480;7.594;2023-05-19T19:11:33;18.40;63.80
25568;DHT22;13455;51.480;7.594;2023-05-19T19:13:59;18.40;64.40
25568;DHT22;13455;51.480;7.594;2023-05-19T19:16:25;18.40;65.00
25568;DHT22;13455;51.480;7.594;2023-05-19T19:18:51;18.30;65.70
25568;DHT22;13455;51.480;7.594;2023-05-19T19:21:16;18.10;66.40
25568;DHT22;13455;51.480;7.594;2023-05-19T19:23:44;17.90;66.00
25568;DHT22;13455;51.480;7.594;2023-05-19T19:26:10;17.90;66.70
25568;DHT22;13455;51.480;7.594;2023-05-19T19:28:35;17.80;67.60
25568;DHT22;13455;51.480;7.594;2023-05-19T19:31:01;17.70;67.80
25568;DHT22;13455;51.480;7.594;2023-05-19T19:33:26;17.70;68.50
25568;DHT22;13455;51.480;7.594;2023-05-19T19:40:44;17.40;70.50
25568;DHT22;13455;51.480;7.594;2023-05-19T19:45:36;17.30;71.00
25568;DHT22;13455;51.480;7.594;2023-05-19T19:55:24;17.10;96.90
25568;DHT22;13455;51.480;7.594;2023-05-19T19:57:50;16.90;74.90
25568;DHT22;13455;51.480;7.594;2023-05-19T20:10:01;16.70;77.20
25568;DHT22;13455;51.480;7.594;2023-05-19T20:12:26;16.50;78.80
25568;DHT22;13455;51.480;7.594;2023-05-19T20:14:54;16.40;79.30
25568;DHT22;13455;51.480;7.594;2023-05-19T20:17:20;16.30;81.00
25568;DHT22;13455;51.480;7.594;2023-05-19T20:19:46;16.20;81.20
25568;DHT22;13455;51.480;7.594;2023-05-19T20:22:12;16.40;93.00
25568;DHT22;13455;51.480;7.594;2023-05-19T20:24:38;16.10;93.60
25568;DHT22;13455;51.480;7.594;2023-05-19T20:27:04;16.00;83.60
25568;DHT22;13455;51.480;7.594;2023-05-19T20:29:30;16.00;83.30
25568;DHT22;13455;51.480;7.594;2023-05-19T20:31:56;15.90;84.00
25568;DHT22;13455;51.480;7.594;2023-05-19T20:34:22;15.90;84.80
25568;DHT22;13455;51.480;7.594;2023-05-19T20:36:47;15.70;92.20
25568;DHT22;13455;51.480;7.594;2023-05-19T20:39:13;15.90;92.40
25568;DHT22;13455;51.480;7.594;2023-05-19T20:41:38;15.70;86.50